Archival Weather

Tokyo Intl

Tokyo, Japan (RJTT)

Report from: Saturday, April 1, 2023 11:00 PM JST
Current time: Sunday, July 14, 2024 7:29 PM JST

Current weather – Weather history – Daily summaries
Weather forecast

Temperature15.0°C (59.0°F)
Dew point9.0°C (48.2°F)
Winds 10 kts (5.1 m/s, 11.5 mph) Northeast (50°)
Visibility6.2 mi. (10 km)
Clouds Few clouds 3,000 ft. (914 m)
Ceiling: Broken clouds 5,000 ft. (1,524 m)
Broken clouds 10,000 ft. (3,048 m)
Altimeter30.03 in.Hg (1017 mB)
Relative humidity67 %
Density altitude37 ft. (11 m)
Remarks No significant changes expected in the next two hours
Flight conditions Visual Meteorological Conditions
Raw dataRJTT 011400Z 05010KT 9999 FEW030 BKN050 BKN100 15/09 Q1017 NOSIG
An error has occurred. This application may no longer respond until reloaded. Reload 🗙